Wudu, China
Current Conditions -  °F | °C
As of 8:00 AM on Friday 19 Dec 2014 (Local Time) from ZUUU Reporting Station
Haze Haze  
Wind Chill: 32°   Ceiling: Unl
Heat Index: 32°   Visibility: 1.2mi
Dew Point: 30°   Wind: 2mph
Humidity: 93%   Direction: 210°SSW
Pressure: 30.36"   Gusts: NA
Location:  33.4°N, 104.92°E
Report Text: ZUUU 190000Z 21001MPS 2000 R02L/1200D R02R/0900V1200D BRNSCM00/M01 Q1028 BECMG TL0100 1400 BR
Loading
Personal Weather Stations






























Interactive Weather Map New forecast layout! Learn more

10-Day Weather Forecast

Advertisements
Track Severe Weather on mobile